sensor_id;sensor_type;location;lat;lon;timestamp;P1;durP1;ratioP1;P2;durP2;ratioP2
2760;SDS011;15420;48.636;9.798;2022-12-18T00:03:59;25.13;;;12.50;;
2760;SDS011;15420;48.636;9.798;2022-12-18T00:06:31;26.50;;;10.90;;
2760;SDS011;15420;48.636;9.798;2022-12-18T00:09:01;27.67;;;13.07;;
2760;SDS011;15420;48.636;9.798;2022-12-18T00:11:34;23.73;;;12.60;;
2760;SDS011;15420;48.636;9.798;2022-12-18T00:14:00;27.17;;;11.33;;
2760;SDS011;15420;48.636;9.798;2022-12-18T00:16:27;29.00;;;12.40;;
2760;SDS011;15420;48.636;9.798;2022-12-18T00:18:55;21.37;;;10.90;;
2760;SDS011;15420;48.636;9.798;2022-12-18T00:21:23;38.57;;;15.70;;
2760;SDS011;15420;48.636;9.798;2022-12-18T00:23:49;27.47;;;13.37;;
2760;SDS011;15420;48.636;9.798;2022-12-18T00:26:20;25.93;;;13.57;;
2760;SDS011;15420;48.636;9.798;2022-12-18T00:28:51;35.80;;;18.27;;
2760;SDS011;15420;48.636;9.798;2022-12-18T00:31:21;31.20;;;15.10;;
2760;SDS011;15420;48.636;9.798;2022-12-18T00:33:53;27.73;;;12.87;;
2760;SDS011;15420;48.636;9.798;2022-12-18T00:36:22;39.97;;;20.10;;
2760;SDS011;15420;48.636;9.798;2022-12-18T00:38:49;40.80;;;20.27;;
2760;SDS011;15420;48.636;9.798;2022-12-18T00:41:19;34.43;;;15.27;;
2760;SDS011;15420;48.636;9.798;2022-12-18T00:44:04;33.67;;;16.13;;
2760;SDS011;15420;48.636;9.798;2022-12-18T00:46:32;36.17;;;14.10;;
2760;SDS011;15420;48.636;9.798;2022-12-18T00:48:58;38.07;;;19.23;;
2760;SDS011;15420;48.636;9.798;2022-12-18T00:51:27;34.53;;;14.47;;
2760;SDS011;15420;48.636;9.798;2022-12-18T00:53:53;33.43;;;16.70;;
2760;SDS011;15420;48.636;9.798;2022-12-18T00:56:20;41.63;;;15.83;;
2760;SDS011;15420;48.636;9.798;2022-12-18T00:58:46;38.00;;;14.80;;
2760;SDS011;15420;48.636;9.798;2022-12-18T01:01:13;30.63;;;12.97;;
2760;SDS011;15420;48.636;9.798;2022-12-18T01:03:39;25.90;;;13.00;;
2760;SDS011;15420;48.636;9.798;2022-12-18T01:06:10;35.60;;;15.10;;
2760;SDS011;15420;48.636;9.798;2022-12-18T01:08:38;33.33;;;15.70;;
2760;SDS011;15420;48.636;9.798;2022-12-18T01:11:14;32.33;;;13.10;;
2760;SDS011;15420;48.636;9.798;2022-12-18T01:13:42;26.97;;;12.60;;
2760;SDS011;15420;48.636;9.798;2022-12-18T01:16:11;29.93;;;14.60;;
2760;SDS011;15420;48.636;9.798;2022-12-18T01:18:38;36.80;;;14.10;;
2760;SDS011;15420;48.636;9.798;2022-12-18T01:21:11;33.00;;;12.63;;
2760;SDS011;15420;48.636;9.798;2022-12-18T01:23:41;31.27;;;12.87;;
2760;SDS011;15420;48.636;9.798;2022-12-18T01:26:13;28.10;;;13.50;;
2760;SDS011;15420;48.636;9.798;2022-12-18T01:28:43;34.63;;;13.53;;
2760;SDS011;15420;48.636;9.798;2022-12-18T01:31:12;27.20;;;12.90;;
2760;SDS011;15420;48.636;9.798;2022-12-18T01:33:43;35.97;;;14.00;;
2760;SDS011;15420;48.636;9.798;2022-12-18T01:36:14;30.10;;;13.27;;
2760;SDS011;15420;48.636;9.798;2022-12-18T01:38:45;35.50;;;14.63;;
2760;SDS011;15420;48.636;9.798;2022-12-18T01:41:12;30.93;;;13.70;;
2760;SDS011;15420;48.636;9.798;2022-12-18T01:43:46;32.30;;;13.93;;
2760;SDS011;15420;48.636;9.798;2022-12-18T01:46:13;30.63;;;13.20;;
2760;SDS011;15420;48.636;9.798;2022-12-18T01:48:40;34.30;;;14.77;;
2760;SDS011;15420;48.636;9.798;2022-12-18T01:51:07;34.00;;;15.80;;
2760;SDS011;15420;48.636;9.798;2022-12-18T01:53:39;28.90;;;13.77;;
2760;SDS011;15420;48.636;9.798;2022-12-18T01:56:07;29.33;;;13.60;;
2760;SDS011;15420;48.636;9.798;2022-12-18T01:58:57;31.97;;;11.13;;
2760;SDS011;15420;48.636;9.798;2022-12-18T02:01:30;35.07;;;15.43;;
2760;SDS011;15420;48.636;9.798;2022-12-18T02:04:14;26.20;;;12.20;;
2760;SDS011;15420;48.636;9.798;2022-12-18T02:06:43;33.17;;;13.20;;
2760;SDS011;15420;48.636;9.798;2022-12-18T02:09:14;43.17;;;14.30;;
2760;SDS011;15420;48.636;9.798;2022-12-18T02:12:05;32.20;;;14.87;;
2760;SDS011;15420;48.636;9.798;2022-12-18T02:20:36;36.00;;;13.50;;
2760;SDS011;15420;48.636;9.798;2022-12-18T02:23:16;31.73;;;13.03;;
2760;SDS011;15420;48.636;9.798;2022-12-18T02:28:28;30.57;;;13.30;;
2760;SDS011;15420;48.636;9.798;2022-12-18T02:31:02;35.30;;;14.90;;
2760;SDS011;15420;48.636;9.798;2022-12-18T02:33:35;35.63;;;14.70;;
2760;SDS011;15420;48.636;9.798;2022-12-18T02:36:02;26.73;;;11.60;;
2760;SDS011;15420;48.636;9.798;2022-12-18T02:38:30;25.17;;;12.47;;
2760;SDS011;15420;48.636;9.798;2022-12-18T02:40:58;37.93;;;13.47;;
2760;SDS011;15420;48.636;9.798;2022-12-18T02:43:25;28.50;;;12.93;;
2760;SDS011;15420;48.636;9.798;2022-12-18T02:45:56;34.70;;;13.27;;
2760;SDS011;15420;48.636;9.798;2022-12-18T02:48:28;39.30;;;16.67;;
2760;SDS011;15420;48.636;9.798;2022-12-18T02:51:17;32.40;;;15.73;;
2760;SDS011;15420;48.636;9.798;2022-12-18T02:53:57;38.27;;;14.60;;
2760;SDS011;15420;48.636;9.798;2022-12-18T02:56:35;33.00;;;14.30;;
2760;SDS011;15420;48.636;9.798;2022-12-18T02:59:12;29.80;;;12.70;;
2760;SDS011;15420;48.636;9.798;2022-12-18T03:01:51;35.67;;;13.50;;
2760;SDS011;15420;48.636;9.798;2022-12-18T03:07:15;32.20;;;13.67;;
2760;SDS011;15420;48.636;9.798;2022-12-18T03:09:47;30.70;;;13.47;;
2760;SDS011;15420;48.636;9.798;2022-12-18T03:12:19;33.90;;;12.63;;
2760;SDS011;15420;48.636;9.798;2022-12-18T03:15:12;33.23;;;14.60;;
2760;SDS011;15420;48.636;9.798;2022-12-18T03:17:48;36.33;;;14.37;;
2760;SDS011;15420;48.636;9.798;2022-12-18T03:20:35;29.60;;;13.17;;
2760;SDS011;15420;48.636;9.798;2022-12-18T03:23:07;31.53;;;12.57;;
2760;SDS011;15420;48.636;9.798;2022-12-18T03:25:39;24.60;;;11.20;;
2760;SDS011;15420;48.636;9.798;2022-12-18T03:28:12;33.17;;;13.50;;
2760;SDS011;15420;48.636;9.798;2022-12-18T03:30:44;35.20;;;13.90;;
2760;SDS011;15420;48.636;9.798;2022-12-18T03:36:03;37.83;;;14.80;;
2760;SDS011;15420;48.636;9.798;2022-12-18T03:38:29;36.83;;;15.10;;
2760;SDS011;15420;48.636;9.798;2022-12-18T03:40:58;31.47;;;13.63;;
2760;SDS011;15420;48.636;9.798;2022-12-18T03:43:39;30.93;;;12.50;;
2760;SDS011;15420;48.636;9.798;2022-12-18T03:46:25;33.30;;;13.23;;
2760;SDS011;15420;48.636;9.798;2022-12-18T03:49:06;30.90;;;11.80;;
2760;SDS011;15420;48.636;9.798;2022-12-18T03:54:18;33.50;;;12.87;;
2760;SDS011;15420;48.636;9.798;2022-12-18T03:56:46;36.00;;;13.43;;
2760;SDS011;15420;48.636;9.798;2022-12-18T03:59:17;35.50;;;13.40;;
2760;SDS011;15420;48.636;9.798;2022-12-18T04:01:49;28.30;;;14.33;;
2760;SDS011;15420;48.636;9.798;2022-12-18T04:04:17;30.00;;;13.60;;
2760;SDS011;15420;48.636;9.798;2022-12-18T04:06:45;35.67;;;15.43;;
2760;SDS011;15420;48.636;9.798;2022-12-18T04:09:15;33.27;;;12.60;;
2760;SDS011;15420;48.636;9.798;2022-12-18T04:11:45;27.40;;;13.87;;
2760;SDS011;15420;48.636;9.798;2022-12-18T04:14:12;38.20;;;14.17;;
2760;SDS011;15420;48.636;9.798;2022-12-18T04:16:39;36.70;;;15.30;;
2760;SDS011;15420;48.636;9.798;2022-12-18T04:19:05;33.03;;;14.60;;
2760;SDS011;15420;48.636;9.798;2022-12-18T04:21:33;32.43;;;13.40;;
2760;SDS011;15420;48.636;9.798;2022-12-18T04:23:59;42.13;;;15.93;;
2760;SDS011;15420;48.636;9.798;2022-12-18T04:26:28;38.63;;;17.73;;
2760;SDS011;15420;48.636;9.798;2022-12-18T04:28:54;32.17;;;12.63;;
2760;SDS011;15420;48.636;9.798;2022-12-18T04:31:20;35.47;;;14.50;;
2760;SDS011;15420;48.636;9.798;2022-12-18T04:33:48;33.47;;;14.67;;
2760;SDS011;15420;48.636;9.798;2022-12-18T04:36:17;40.30;;;14.80;;
2760;SDS011;15420;48.636;9.798;2022-12-18T04:38:43;33.00;;;14.47;;
2760;SDS011;15420;48.636;9.798;2022-12-18T04:41:15;33.27;;;14.00;;
2760;SDS011;15420;48.636;9.798;2022-12-18T04:43:41;29.47;;;13.90;;
2760;SDS011;15420;48.636;9.798;2022-12-18T04:46:07;33.73;;;12.17;;
2760;SDS011;15420;48.636;9.798;2022-12-18T04:48:34;33.00;;;14.17;;
2760;SDS011;15420;48.636;9.798;2022-12-18T04:51:01;30.40;;;12.40;;
2760;SDS011;15420;48.636;9.798;2022-12-18T04:53:28;35.67;;;12.50;;
2760;SDS011;15420;48.636;9.798;2022-12-18T04:56:30;32.83;;;14.67;;
2760;SDS011;15420;48.636;9.798;2022-12-18T04:58:51;35.70;;;13.53;;
2760;SDS011;15420;48.636;9.798;2022-12-18T05:01:18;43.27;;;14.73;;
2760;SDS011;15420;48.636;9.798;2022-12-18T05:03:44;42.90;;;16.03;;
2760;SDS011;15420;48.636;9.798;2022-12-18T05:06:12;51.10;;;16.50;;
2760;SDS011;15420;48.636;9.798;2022-12-18T05:08:38;38.23;;;14.47;;
2760;SDS011;15420;48.636;9.798;2022-12-18T05:11:05;36.90;;;15.10;;
2760;SDS011;15420;48.636;9.798;2022-12-18T05:13:34;39.80;;;14.73;;
2760;SDS011;15420;48.636;9.798;2022-12-18T05:16:01;42.13;;;15.30;;
2760;SDS011;15420;48.636;9.798;2022-12-18T05:18:28;34.90;;;15.20;;
2760;SDS011;15420;48.636;9.798;2022-12-18T05:20:54;41.77;;;14.63;;
2760;SDS011;15420;48.636;9.798;2022-12-18T05:23:21;32.07;;;15.00;;
2760;SDS011;15420;48.636;9.798;2022-12-18T05:25:56;35.00;;;13.30;;
2760;SDS011;15420;48.636;9.798;2022-12-18T05:28:28;32.60;;;13.80;;
2760;SDS011;15420;48.636;9.798;2022-12-18T05:30:57;29.97;;;12.57;;
2760;SDS011;15420;48.636;9.798;2022-12-18T05:33:25;35.63;;;13.70;;
2760;SDS011;15420;48.636;9.798;2022-12-18T05:35:54;37.73;;;14.07;;
2760;SDS011;15420;48.636;9.798;2022-12-18T05:38:22;33.30;;;14.90;;
2760;SDS011;15420;48.636;9.798;2022-12-18T05:40:50;37.07;;;15.60;;
2760;SDS011;15420;48.636;9.798;2022-12-18T05:43:19;40.47;;;16.83;;
2760;SDS011;15420;48.636;9.798;2022-12-18T05:45:52;37.67;;;15.10;;
2760;SDS011;15420;48.636;9.798;2022-12-18T05:48:24;35.70;;;14.80;;
2760;SDS011;15420;48.636;9.798;2022-12-18T05:50:52;42.93;;;15.93;;
2760;SDS011;15420;48.636;9.798;2022-12-18T05:53:18;41.90;;;17.87;;
2760;SDS011;15420;48.636;9.798;2022-12-18T05:55:45;37.97;;;14.73;;
2760;SDS011;15420;48.636;9.798;2022-12-18T05:58:13;40.23;;;15.33;;
2760;SDS011;15420;48.636;9.798;2022-12-18T06:00:44;37.43;;;14.40;;
2760;SDS011;15420;48.636;9.798;2022-12-18T06:03:11;45.63;;;14.47;;
2760;SDS011;15420;48.636;9.798;2022-12-18T06:05:39;29.43;;;13.20;;
2760;SDS011;15420;48.636;9.798;2022-12-18T06:08:10;27.70;;;12.27;;
2760;SDS011;15420;48.636;9.798;2022-12-18T06:10:37;32.10;;;14.20;;
2760;SDS011;15420;48.636;9.798;2022-12-18T06:13:06;31.20;;;12.10;;
2760;SDS011;15420;48.636;9.798;2022-12-18T06:15:35;43.90;;;16.77;;
2760;SDS011;15420;48.636;9.798;2022-12-18T06:18:04;42.30;;;14.27;;
2760;SDS011;15420;48.636;9.798;2022-12-18T06:20:33;35.17;;;14.33;;
2760;SDS011;15420;48.636;9.798;2022-12-18T06:23:04;37.90;;;15.67;;
2760;SDS011;15420;48.636;9.798;2022-12-18T06:25:33;36.43;;;13.80;;
2760;SDS011;15420;48.636;9.798;2022-12-18T06:28:02;30.53;;;13.77;;
2760;SDS011;15420;48.636;9.798;2022-12-18T06:30:28;35.33;;;14.23;;
2760;SDS011;15420;48.636;9.798;2022-12-18T06:32:54;33.63;;;13.97;;
2760;SDS011;15420;48.636;9.798;2022-12-18T06:35:21;46.40;;;15.87;;
2760;SDS011;15420;48.636;9.798;2022-12-18T06:37:48;39.50;;;16.17;;
2760;SDS011;15420;48.636;9.798;2022-12-18T06:40:14;38.40;;;14.67;;
2760;SDS011;15420;48.636;9.798;2022-12-18T06:42:42;40.07;;;15.63;;
2760;SDS011;15420;48.636;9.798;2022-12-18T06:45:08;42.03;;;16.00;;
2760;SDS011;15420;48.636;9.798;2022-12-18T06:47:36;43.67;;;14.87;;
2760;SDS011;15420;48.636;9.798;2022-12-18T06:50:02;45.43;;;17.17;;
2760;SDS011;15420;48.636;9.798;2022-12-18T06:52:31;41.20;;;15.40;;
2760;SDS011;15420;48.636;9.798;2022-12-18T06:54:59;55.37;;;19.33;;
2760;SDS011;15420;48.636;9.798;2022-12-18T06:57:30;45.50;;;18.13;;
2760;SDS011;15420;48.636;9.798;2022-12-18T06:59:56;43.97;;;16.87;;
2760;SDS011;15420;48.636;9.798;2022-12-18T07:02:22;36.10;;;14.90;;
2760;SDS011;15420;48.636;9.798;2022-12-18T07:04:50;40.00;;;15.57;;
2760;SDS011;15420;48.636;9.798;2022-12-18T07:07:19;42.30;;;16.10;;
2760;SDS011;15420;48.636;9.798;2022-12-18T07:09:45;42.83;;;16.23;;
2760;SDS011;15420;48.636;9.798;2022-12-18T07:12:11;39.00;;;17.10;;
2760;SDS011;15420;48.636;9.798;2022-12-18T07:14:37;42.43;;;14.97;;
2760;SDS011;15420;48.636;9.798;2022-12-18T07:17:03;38.20;;;16.20;;
2760;SDS011;15420;48.636;9.798;2022-12-18T07:19:34;43.90;;;16.30;;
2760;SDS011;15420;48.636;9.798;2022-12-18T07:22:00;46.77;;;17.37;;
2760;SDS011;15420;48.636;9.798;2022-12-18T07:24:29;45.90;;;16.53;;
2760;SDS011;15420;48.636;9.798;2022-12-18T07:26:55;41.73;;;17.20;;
2760;SDS011;15420;48.636;9.798;2022-12-18T07:29:24;43.37;;;16.00;;
2760;SDS011;15420;48.636;9.798;2022-12-18T07:31:50;52.33;;;18.07;;
2760;SDS011;15420;48.636;9.798;2022-12-18T07:34:16;43.03;;;16.13;;
2760;SDS011;15420;48.636;9.798;2022-12-18T07:36:45;45.47;;;16.63;;
2760;SDS011;15420;48.636;9.798;2022-12-18T07:39:11;45.43;;;15.70;;
2760;SDS011;15420;48.636;9.798;2022-12-18T07:41:37;43.07;;;17.80;;
2760;SDS011;15420;48.636;9.798;2022-12-18T07:44:09;49.00;;;19.90;;
2760;SDS011;15420;48.636;9.798;2022-12-18T07:46:35;46.10;;;17.57;;
2760;SDS011;15420;48.636;9.798;2022-12-18T07:49:02;49.87;;;18.40;;
2760;SDS011;15420;48.636;9.798;2022-12-18T07:51:28;46.27;;;16.73;;
2760;SDS011;15420;48.636;9.798;2022-12-18T07:53:54;41.23;;;16.03;;
2760;SDS011;15420;48.636;9.798;2022-12-18T07:56:21;48.00;;;16.37;;
2760;SDS011;15420;48.636;9.798;2022-12-18T07:58:47;42.33;;;17.47;;
2760;SDS011;15420;48.636;9.798;2022-12-18T08:01:13;52.90;;;16.23;;
2760;SDS011;15420;48.636;9.798;2022-12-18T08:03:42;43.53;;;16.90;;
2760;SDS011;15420;48.636;9.798;2022-12-18T08:06:11;41.23;;;16.47;;
2760;SDS011;15420;48.636;9.798;2022-12-18T08:08:37;43.73;;;18.30;;
2760;SDS011;15420;48.636;9.798;2022-12-18T08:11:03;45.63;;;17.53;;
2760;SDS011;15420;48.636;9.798;2022-12-18T08:13:31;46.10;;;17.10;;
2760;SDS011;15420;48.636;9.798;2022-12-18T08:16:03;44.57;;;16.53;;
2760;SDS011;15420;48.636;9.798;2022-12-18T08:18:31;49.30;;;17.23;;
2760;SDS011;15420;48.636;9.798;2022-12-18T08:23:41;44.83;;;17.77;;
2760;SDS011;15420;48.636;9.798;2022-12-18T08:26:07;38.83;;;16.40;;
2760;SDS011;15420;48.636;9.798;2022-12-18T08:28:34;36.43;;;15.97;;
2760;SDS011;15420;48.636;9.798;2022-12-18T08:31:00;42.77;;;17.83;;
2760;SDS011;15420;48.636;9.798;2022-12-18T08:33:29;51.97;;;17.80;;
2760;SDS011;15420;48.636;9.798;2022-12-18T08:35:55;42.97;;;17.33;;
2760;SDS011;15420;48.636;9.798;2022-12-18T08:38:25;38.90;;;16.92;;
2760;SDS011;15420;48.636;9.798;2022-12-18T08:41:01;43.78;;;18.50;;
2760;SDS011;15420;48.636;9.798;2022-12-18T08:43:29;52.17;;;16.97;;
2760;SDS011;15420;48.636;9.798;2022-12-18T08:46:14;45.37;;;16.80;;
2760;SDS011;15420;48.636;9.798;2022-12-18T08:48:41;49.10;;;19.27;;
2760;SDS011;15420;48.636;9.798;2022-12-18T08:51:12;50.00;;;19.30;;
2760;SDS011;15420;48.636;9.798;2022-12-18T08:53:40;50.30;;;20.85;;
2760;SDS011;15420;48.636;9.798;2022-12-18T08:56:07;48.27;;;19.97;;
2760;SDS011;15420;48.636;9.798;2022-12-18T08:58:35;45.88;;;20.15;;
2760;SDS011;15420;48.636;9.798;2022-12-18T09:01:02;51.95;;;20.88;;
2760;SDS011;15420;48.636;9.798;2022-12-18T09:03:32;52.70;;;21.27;;
2760;SDS011;15420;48.636;9.798;2022-12-18T09:06:01;47.95;;;21.02;;
2760;SDS011;15420;48.636;9.798;2022-12-18T09:08:27;48.70;;;18.60;;
2760;SDS011;15420;48.636;9.798;2022-12-18T09:10:56;38.70;;;17.20;;
2760;SDS011;15420;48.636;9.798;2022-12-18T09:13:22;52.88;;;19.70;;
2760;SDS011;15420;48.636;9.798;2022-12-18T09:15:49;44.72;;;18.83;;
2760;SDS011;15420;48.636;9.798;2022-12-18T09:18:19;44.23;;;19.07;;
2760;SDS011;15420;48.636;9.798;2022-12-18T09:20:46;41.07;;;17.47;;
2760;SDS011;15420;48.636;9.798;2022-12-18T09:23:13;43.00;;;16.87;;
2760;SDS011;15420;48.636;9.798;2022-12-18T09:25:39;50.40;;;18.97;;
2760;SDS011;15420;48.636;9.798;2022-12-18T09:30:37;50.57;;;19.00;;
2760;SDS011;15420;48.636;9.798;2022-12-18T09:33:06;43.67;;;16.20;;
2760;SDS011;15420;48.636;9.798;2022-12-18T09:35:38;43.63;;;14.60;;
2760;SDS011;15420;48.636;9.798;2022-12-18T09:38:05;42.93;;;16.10;;
2760;SDS011;15420;48.636;9.798;2022-12-18T09:40:36;44.67;;;16.33;;
2760;SDS011;15420;48.636;9.798;2022-12-18T09:46:10;43.70;;;16.50;;
2760;SDS011;15420;48.636;9.798;2022-12-18T09:48:44;50.40;;;15.27;;
2760;SDS011;15420;48.636;9.798;2022-12-18T09:53:45;53.77;;;17.07;;
2760;SDS011;15420;48.636;9.798;2022-12-18T09:56:18;38.50;;;17.27;;
2760;SDS011;15420;48.636;9.798;2022-12-18T09:59:00;38.40;;;16.47;;
2760;SDS011;15420;48.636;9.798;2022-12-18T10:01:28;36.90;;;15.63;;
2760;SDS011;15420;48.636;9.798;2022-12-18T10:03:56;36.53;;;15.40;;
2760;SDS011;15420;48.636;9.798;2022-12-18T10:14:34;41.80;;;15.53;;
2760;SDS011;15420;48.636;9.798;2022-12-18T10:20:05;31.63;;;14.27;;
2760;SDS011;15420;48.636;9.798;2022-12-18T10:22:49;39.13;;;16.37;;
2760;SDS011;15420;48.636;9.798;2022-12-18T10:25:41;41.70;;;16.53;;
2760;SDS011;15420;48.636;9.798;2022-12-18T10:28:52;42.43;;;17.47;;
2760;SDS011;15420;48.636;9.798;2022-12-18T10:31:20;48.20;;;16.87;;
2760;SDS011;15420;48.636;9.798;2022-12-18T10:33:48;34.67;;;13.80;;
2760;SDS011;15420;48.636;9.798;2022-12-18T10:36:18;39.57;;;15.67;;
2760;SDS011;15420;48.636;9.798;2022-12-18T10:38:45;42.43;;;18.00;;
2760;SDS011;15420;48.636;9.798;2022-12-18T10:43:44;42.57;;;15.27;;
2760;SDS011;15420;48.636;9.798;2022-12-18T10:51:07;39.60;;;16.07;;
2760;SDS011;15420;48.636;9.798;2022-12-18T10:53:34;34.07;;;15.53;;
2760;SDS011;15420;48.636;9.798;2022-12-18T10:56:02;41.03;;;15.23;;
2760;SDS011;15420;48.636;9.798;2022-12-18T10:58:35;37.43;;;15.70;;
2760;SDS011;15420;48.636;9.798;2022-12-18T11:06:22;38.03;;;16.77;;
2760;SDS011;15420;48.636;9.798;2022-12-18T11:11:27;50.60;;;17.57;;
2760;SDS011;15420;48.636;9.798;2022-12-18T11:16:45;38.37;;;16.30;;
2760;SDS011;15420;48.636;9.798;2022-12-18T11:22:21;42.23;;;18.00;;
2760;SDS011;15420;48.636;9.798;2022-12-18T11:27:25;42.83;;;16.90;;
2760;SDS011;15420;48.636;9.798;2022-12-18T11:29:52;39.20;;;16.87;;
2760;SDS011;15420;48.636;9.798;2022-12-18T11:32:35;40.63;;;16.37;;
2760;SDS011;15420;48.636;9.798;2022-12-18T11:35:10;38.40;;;16.30;;
2760;SDS011;15420;48.636;9.798;2022-12-18T11:37:40;39.03;;;15.37;;
2760;SDS011;15420;48.636;9.798;2022-12-18T11:40:15;41.97;;;17.27;;
2760;SDS011;15420;48.636;9.798;2022-12-18T11:42:54;42.13;;;16.40;;
2760;SDS011;15420;48.636;9.798;2022-12-18T11:45:39;35.67;;;15.83;;
2760;SDS011;15420;48.636;9.798;2022-12-18T11:48:34;41.60;;;17.17;;
2760;SDS011;15420;48.636;9.798;2022-12-18T11:51:09;33.67;;;17.40;;
2760;SDS011;15420;48.636;9.798;2022-12-18T11:53:43;40.00;;;18.00;;
2760;SDS011;15420;48.636;9.798;2022-12-18T12:12:23;41.27;;;17.60;;
2760;SDS011;15420;48.636;9.798;2022-12-18T12:20:20;33.93;;;15.83;;
2760;SDS011;15420;48.636;9.798;2022-12-18T12:26:04;40.83;;;16.47;;
2760;SDS011;15420;48.636;9.798;2022-12-18T12:39:41;43.40;;;17.20;;
2760;SDS011;15420;48.636;9.798;2022-12-18T12:42:12;40.63;;;18.27;;
2760;SDS011;15420;48.636;9.798;2022-12-18T12:45:21;46.80;;;18.20;;
2760;SDS011;15420;48.636;9.798;2022-12-18T12:47:54;35.93;;;16.60;;
2760;SDS011;15420;48.636;9.798;2022-12-18T12:50:26;46.03;;;17.33;;
2760;SDS011;15420;48.636;9.798;2022-12-18T12:52:58;41.27;;;16.17;;
2760;SDS011;15420;48.636;9.798;2022-12-18T12:55:28;39.63;;;17.10;;
2760;SDS011;15420;48.636;9.798;2022-12-18T12:58:11;39.43;;;17.73;;
2760;SDS011;15420;48.636;9.798;2022-12-18T13:00:41;45.50;;;16.80;;
2760;SDS011;15420;48.636;9.798;2022-12-18T13:06:16;43.17;;;17.53;;
2760;SDS011;15420;48.636;9.798;2022-12-18T13:08:55;40.60;;;17.73;;
2760;SDS011;15420;48.636;9.798;2022-12-18T13:14:24;49.00;;;19.87;;
2760;SDS011;15420;48.636;9.798;2022-12-18T13:17:14;47.90;;;20.67;;
2760;SDS011;15420;48.636;9.798;2022-12-18T13:19:41;39.87;;;17.80;;
2760;SDS011;15420;48.636;9.798;2022-12-18T13:22:21;40.43;;;17.33;;
2760;SDS011;15420;48.636;9.798;2022-12-18T13:24:49;42.63;;;17.50;;
2760;SDS011;15420;48.636;9.798;2022-12-18T13:38:45;42.77;;;20.33;;
2760;SDS011;15420;48.636;9.798;2022-12-18T13:43:44;34.50;;;16.57;;
2760;SDS011;15420;48.636;9.798;2022-12-18T13:51:44;44.93;;;19.40;;
2760;SDS011;15420;48.636;9.798;2022-12-18T13:56:50;44.60;;;20.10;;
2760;SDS011;15420;48.636;9.798;2022-12-18T13:59:18;41.63;;;20.73;;
2760;SDS011;15420;48.636;9.798;2022-12-18T14:04:19;36.37;;;16.07;;
2760;SDS011;15420;48.636;9.798;2022-12-18T14:06:55;42.47;;;19.50;;
2760;SDS011;15420;48.636;9.798;2022-12-18T14:09:28;41.00;;;18.33;;
2760;SDS011;15420;48.636;9.798;2022-12-18T14:11:59;41.30;;;18.57;;
2760;SDS011;15420;48.636;9.798;2022-12-18T14:14:46;48.93;;;21.60;;
2760;SDS011;15420;48.636;9.798;2022-12-18T14:17:17;36.07;;;18.10;;
2760;SDS011;15420;48.636;9.798;2022-12-18T14:19:47;36.17;;;18.17;;
2760;SDS011;15420;48.636;9.798;2022-12-18T14:22:20;39.10;;;18.40;;
2760;SDS011;15420;48.636;9.798;2022-12-18T14:27:50;41.97;;;18.83;;
2760;SDS011;15420;48.636;9.798;2022-12-18T14:30:26;38.40;;;15.53;;
2760;SDS011;15420;48.636;9.798;2022-12-18T14:33:16;41.33;;;17.20;;
2760;SDS011;15420;48.636;9.798;2022-12-18T14:38:21;34.60;;;16.83;;
2760;SDS011;15420;48.636;9.798;2022-12-18T14:40:56;55.23;;;26.87;;
2760;SDS011;15420;48.636;9.798;2022-12-18T14:43:26;54.33;;;26.10;;
2760;SDS011;15420;48.636;9.798;2022-12-18T14:45:54;46.00;;;20.80;;
2760;SDS011;15420;48.636;9.798;2022-12-18T14:48:22;54.67;;;27.37;;
2760;SDS011;15420;48.636;9.798;2022-12-18T14:54:05;40.00;;;16.73;;
2760;SDS011;15420;48.636;9.798;2022-12-18T14:56:46;34.03;;;17.43;;
2760;SDS011;15420;48.636;9.798;2022-12-18T14:59:26;37.93;;;20.90;;
2760;SDS011;15420;48.636;9.798;2022-12-18T15:04:40;37.47;;;16.73;;
2760;SDS011;15420;48.636;9.798;2022-12-18T15:09:43;46.00;;;16.37;;
2760;SDS011;15420;48.636;9.798;2022-12-18T15:12:35;33.53;;;16.20;;
2760;SDS011;15420;48.636;9.798;2022-12-18T15:20:41;35.70;;;14.67;;
2760;SDS011;15420;48.636;9.798;2022-12-18T15:25:49;35.30;;;14.87;;
2760;SDS011;15420;48.636;9.798;2022-12-18T15:28:23;38.73;;;16.63;;
2760;SDS011;15420;48.636;9.798;2022-12-18T15:33:34;34.23;;;16.27;;
2760;SDS011;15420;48.636;9.798;2022-12-18T15:36:07;31.50;;;13.40;;
2760;SDS011;15420;48.636;9.798;2022-12-18T15:38:41;27.87;;;12.20;;
2760;SDS011;15420;48.636;9.798;2022-12-18T15:41:15;30.27;;;13.00;;
2760;SDS011;15420;48.636;9.798;2022-12-18T15:43:43;32.20;;;13.77;;
2760;SDS011;15420;48.636;9.798;2022-12-18T15:46:15;37.70;;;16.70;;
2760;SDS011;15420;48.636;9.798;2022-12-18T15:48:44;38.50;;;17.00;;
2760;SDS011;15420;48.636;9.798;2022-12-18T15:53:43;41.63;;;19.20;;
2760;SDS011;15420;48.636;9.798;2022-12-18T15:56:13;43.27;;;21.03;;
2760;SDS011;15420;48.636;9.798;2022-12-18T15:58:59;60.23;;;29.33;;
2760;SDS011;15420;48.636;9.798;2022-12-18T16:01:30;41.50;;;19.03;;
2760;SDS011;15420;48.636;9.798;2022-12-18T16:03:59;35.20;;;17.27;;
2760;SDS011;15420;48.636;9.798;2022-12-18T16:06:25;36.10;;;16.67;;
2760;SDS011;15420;48.636;9.798;2022-12-18T16:08:51;41.00;;;19.27;;
2760;SDS011;15420;48.636;9.798;2022-12-18T16:11:20;34.80;;;17.70;;
2760;SDS011;15420;48.636;9.798;2022-12-18T16:16:48;39.10;;;20.70;;
2760;SDS011;15420;48.636;9.798;2022-12-18T16:19:18;40.23;;;18.17;;
2760;SDS011;15420;48.636;9.798;2022-12-18T16:21:47;34.00;;;16.53;;
2760;SDS011;15420;48.636;9.798;2022-12-18T16:24:18;39.40;;;18.00;;
2760;SDS011;15420;48.636;9.798;2022-12-18T16:26:48;38.73;;;16.37;;
2760;SDS011;15420;48.636;9.798;2022-12-18T16:29:19;36.00;;;17.80;;
2760;SDS011;15420;48.636;9.798;2022-12-18T16:31:53;35.97;;;16.47;;
2760;SDS011;15420;48.636;9.798;2022-12-18T16:34:24;39.20;;;18.30;;
2760;SDS011;15420;48.636;9.798;2022-12-18T16:36:54;40.23;;;17.67;;
2760;SDS011;15420;48.636;9.798;2022-12-18T16:39:21;44.83;;;17.40;;
2760;SDS011;15420;48.636;9.798;2022-12-18T16:41:47;40.67;;;17.77;;
2760;SDS011;15420;48.636;9.798;2022-12-18T16:44:19;33.27;;;17.40;;
2760;SDS011;15420;48.636;9.798;2022-12-18T16:46:45;51.03;;;21.93;;
2760;SDS011;15420;48.636;9.798;2022-12-18T16:49:17;43.63;;;21.77;;
2760;SDS011;15420;48.636;9.798;2022-12-18T16:51:46;68.50;;;28.93;;
2760;SDS011;15420;48.636;9.798;2022-12-18T16:54:14;180.77;;;68.67;;
2760;SDS011;15420;48.636;9.798;2022-12-18T16:56:40;156.73;;;64.03;;
2760;SDS011;15420;48.636;9.798;2022-12-18T16:59:13;78.70;;;34.10;;
2760;SDS011;15420;48.636;9.798;2022-12-18T17:01:42;46.93;;;21.50;;
2760;SDS011;15420;48.636;9.798;2022-12-18T17:04:13;44.50;;;18.00;;
2760;SDS011;15420;48.636;9.798;2022-12-18T17:06:42;47.00;;;20.97;;
2760;SDS011;15420;48.636;9.798;2022-12-18T17:09:10;37.27;;;18.80;;
2760;SDS011;15420;48.636;9.798;2022-12-18T17:11:41;33.83;;;16.97;;
2760;SDS011;15420;48.636;9.798;2022-12-18T17:14:14;38.07;;;16.90;;
2760;SDS011;15420;48.636;9.798;2022-12-18T17:16:42;31.20;;;16.30;;
2760;SDS011;15420;48.636;9.798;2022-12-18T17:19:08;44.33;;;21.67;;
2760;SDS011;15420;48.636;9.798;2022-12-18T17:21:35;40.07;;;22.00;;
2760;SDS011;15420;48.636;9.798;2022-12-18T17:24:03;39.67;;;20.10;;
2760;SDS011;15420;48.636;9.798;2022-12-18T17:26:30;38.50;;;21.07;;
2760;SDS011;15420;48.636;9.798;2022-12-18T17:28:56;38.03;;;26.17;;
2760;SDS011;15420;48.636;9.798;2022-12-18T17:31:26;37.10;;;23.33;;
2760;SDS011;15420;48.636;9.798;2022-12-18T17:33:55;35.53;;;19.67;;
2760;SDS011;15420;48.636;9.798;2022-12-18T17:36:22;35.37;;;18.00;;